sensor_id;sensor_type;location;lat;lon;timestamp;temperature;humidity
24446;DHT22;13347;50.984;5.822;2023-08-12T00:02:16;21.30;99.90
24446;DHT22;13347;50.984;5.822;2023-08-12T00:04:43;21.30;99.90
24446;DHT22;13347;50.984;5.822;2023-08-12T00:07:11;21.20;99.90
24446;DHT22;13347;50.984;5.822;2023-08-12T00:09:39;21.20;99.90
24446;DHT22;13347;50.984;5.822;2023-08-12T00:12:06;21.20;99.90
24446;DHT22;13347;50.984;5.822;2023-08-12T00:14:33;21.20;99.90
24446;DHT22;13347;50.984;5.822;2023-08-12T00:17:00;21.20;99.90
24446;DHT22;13347;50.984;5.822;2023-08-12T00:19:29;21.10;99.90
24446;DHT22;13347;50.984;5.822;2023-08-12T00:21:56;21.10;99.90
24446;DHT22;13347;50.984;5.822;2023-08-12T00:24:23;21.10;99.90
24446;DHT22;13347;50.984;5.822;2023-08-12T00:26:50;21.10;99.90
24446;DHT22;13347;50.984;5.822;2023-08-12T00:29:17;21.10;99.90
24446;DHT22;13347;50.984;5.822;2023-08-12T00:31:44;21.00;99.90
24446;DHT22;13347;50.984;5.822;2023-08-12T00:34:11;21.10;99.90
24446;DHT22;13347;50.984;5.822;2023-08-12T00:36:39;21.00;99.90
24446;DHT22;13347;50.984;5.822;2023-08-12T00:39:06;21.00;99.90
24446;DHT22;13347;50.984;5.822;2023-08-12T00:41:33;21.00;99.90
24446;DHT22;13347;50.984;5.822;2023-08-12T00:44:00;21.00;99.90
24446;DHT22;13347;50.984;5.822;2023-08-12T00:46:27;21.00;99.90
24446;DHT22;13347;50.984;5.822;2023-08-12T00:48:54;21.00;99.90
24446;DHT22;13347;50.984;5.822;2023-08-12T00:51:21;21.00;99.90
24446;DHT22;13347;50.984;5.822;2023-08-12T00:53:50;21.00;99.90
24446;DHT22;13347;50.984;5.822;2023-08-12T00:56:17;21.00;99.90
24446;DHT22;13347;50.984;5.822;2023-08-12T00:58:44;21.00;99.90
24446;DHT22;13347;50.984;5.822;2023-08-12T01:01:12;21.00;99.90
24446;DHT22;13347;50.984;5.822;2023-08-12T01:03:40;21.00;99.90
24446;DHT22;13347;50.984;5.822;2023-08-12T01:06:07;21.00;99.90
24446;DHT22;13347;50.984;5.822;2023-08-12T01:08:35;21.10;99.90
24446;DHT22;13347;50.984;5.822;2023-08-12T01:11:05;21.10;99.90
24446;DHT22;13347;50.984;5.822;2023-08-12T01:13:34;21.10;99.90
24446;DHT22;13347;50.984;5.822;2023-08-12T01:16:06;21.00;99.90
24446;DHT22;13347;50.984;5.822;2023-08-12T01:18:34;21.10;99.90
24446;DHT22;13347;50.984;5.822;2023-08-12T01:21:02;21.10;99.90
24446;DHT22;13347;50.984;5.822;2023-08-12T01:23:32;21.00;99.90
24446;DHT22;13347;50.984;5.822;2023-08-12T01:25:59;20.90;99.90
24446;DHT22;13347;50.984;5.822;2023-08-12T01:28:26;20.80;99.90
24446;DHT22;13347;50.984;5.822;2023-08-12T01:30:55;20.80;99.90
24446;DHT22;13347;50.984;5.822;2023-08-12T01:33:27;20.80;99.90
24446;DHT22;13347;50.984;5.822;2023-08-12T01:35:57;20.80;99.90
24446;DHT22;13347;50.984;5.822;2023-08-12T01:38:26;20.80;99.90
24446;DHT22;13347;50.984;5.822;2023-08-12T01:40:56;20.90;99.90
24446;DHT22;13347;50.984;5.822;2023-08-12T01:43:24;20.90;99.90
24446;DHT22;13347;50.984;5.822;2023-08-12T01:45:51;20.90;99.90
24446;DHT22;13347;50.984;5.822;2023-08-12T01:48:18;20.90;99.90
24446;DHT22;13347;50.984;5.822;2023-08-12T01:50:48;20.90;99.90
24446;DHT22;13347;50.984;5.822;2023-08-12T01:53:15;21.00;99.90
24446;DHT22;13347;50.984;5.822;2023-08-12T01:55:42;21.00;99.90
24446;DHT22;13347;50.984;5.822;2023-08-12T01:58:11;21.00;99.90
24446;DHT22;13347;50.984;5.822;2023-08-12T02:00:38;21.00;99.90
24446;DHT22;13347;50.984;5.822;2023-08-12T02:03:05;20.90;99.90
24446;DHT22;13347;50.984;5.822;2023-08-12T02:05:33;21.10;99.90
24446;DHT22;13347;50.984;5.822;2023-08-12T02:08:00;21.20;99.90
24446;DHT22;13347;50.984;5.822;2023-08-12T02:10:27;21.20;99.90
24446;DHT22;13347;50.984;5.822;2023-08-12T02:12:54;21.20;99.90
24446;DHT22;13347;50.984;5.822;2023-08-12T02:15:22;21.20;99.90
24446;DHT22;13347;50.984;5.822;2023-08-12T02:17:49;21.20;99.90
24446;DHT22;13347;50.984;5.822;2023-08-12T02:20:16;21.20;99.90
24446;DHT22;13347;50.984;5.822;2023-08-12T02:22:44;21.20;99.90
24446;DHT22;13347;50.984;5.822;2023-08-12T02:25:10;21.10;99.90
24446;DHT22;13347;50.984;5.822;2023-08-12T02:27:37;21.10;99.90
24446;DHT22;13347;50.984;5.822;2023-08-12T02:30:05;21.00;99.90
24446;DHT22;13347;50.984;5.822;2023-08-12T02:32:33;21.00;99.90
24446;DHT22;13347;50.984;5.822;2023-08-12T02:35:00;21.00;99.90
24446;DHT22;13347;50.984;5.822;2023-08-12T02:37:27;21.00;99.90
24446;DHT22;13347;50.984;5.822;2023-08-12T02:39:54;21.00;99.90
24446;DHT22;13347;50.984;5.822;2023-08-12T02:42:21;20.90;99.90
24446;DHT22;13347;50.984;5.822;2023-08-12T02:44:48;20.90;99.90
24446;DHT22;13347;50.984;5.822;2023-08-12T02:47:15;20.90;99.90
24446;DHT22;13347;50.984;5.822;2023-08-12T02:49:43;20.80;99.90
24446;DHT22;13347;50.984;5.822;2023-08-12T02:52:10;20.90;99.90
24446;DHT22;13347;50.984;5.822;2023-08-12T02:54:37;21.00;99.90
24446;DHT22;13347;50.984;5.822;2023-08-12T02:57:04;21.00;99.90
24446;DHT22;13347;50.984;5.822;2023-08-12T02:59:31;21.00;99.90
24446;DHT22;13347;50.984;5.822;2023-08-12T03:01:58;21.00;99.90
24446;DHT22;13347;50.984;5.822;2023-08-12T03:04:25;21.00;99.90
24446;DHT22;13347;50.984;5.822;2023-08-12T03:06:53;21.00;99.90
24446;DHT22;13347;50.984;5.822;2023-08-12T03:09:20;21.00;99.90
24446;DHT22;13347;50.984;5.822;2023-08-12T03:11:47;20.90;99.90
24446;DHT22;13347;50.984;5.822;2023-08-12T03:14:15;20.90;99.90
24446;DHT22;13347;50.984;5.822;2023-08-12T03:16:42;20.90;99.90
24446;DHT22;13347;50.984;5.822;2023-08-12T03:19:09;20.80;99.90
24446;DHT22;13347;50.984;5.822;2023-08-12T03:21:36;20.70;99.90
24446;DHT22;13347;50.984;5.822;2023-08-12T03:24:05;20.70;99.90
24446;DHT22;13347;50.984;5.822;2023-08-12T03:26:32;20.70;99.90
24446;DHT22;13347;50.984;5.822;2023-08-12T03:28:59;20.80;99.90
24446;DHT22;13347;50.984;5.822;2023-08-12T03:31:26;20.80;99.90
24446;DHT22;13347;50.984;5.822;2023-08-12T03:33:52;20.80;99.90
24446;DHT22;13347;50.984;5.822;2023-08-12T03:36:19;20.80;99.90
24446;DHT22;13347;50.984;5.822;2023-08-12T03:38:46;20.80;99.90
24446;DHT22;13347;50.984;5.822;2023-08-12T03:41:15;20.90;99.90
24446;DHT22;13347;50.984;5.822;2023-08-12T03:43:42;20.80;99.90
24446;DHT22;13347;50.984;5.822;2023-08-12T03:46:09;20.90;99.90
24446;DHT22;13347;50.984;5.822;2023-08-12T03:48:36;20.90;99.90
24446;DHT22;13347;50.984;5.822;2023-08-12T03:51:03;21.00;99.90
24446;DHT22;13347;50.984;5.822;2023-08-12T03:53:30;20.90;99.90
24446;DHT22;13347;50.984;5.822;2023-08-12T03:55:57;21.00;99.90
24446;DHT22;13347;50.984;5.822;2023-08-12T03:58:26;21.00;99.90
24446;DHT22;13347;50.984;5.822;2023-08-12T04:00:53;21.00;99.90
24446;DHT22;13347;50.984;5.822;2023-08-12T04:03:20;20.90;99.90
24446;DHT22;13347;50.984;5.822;2023-08-12T04:05:47;21.00;99.90
24446;DHT22;13347;50.984;5.822;2023-08-12T04:08:15;20.90;99.90
24446;DHT22;13347;50.984;5.822;2023-08-12T04:10:44;20.90;99.90
24446;DHT22;13347;50.984;5.822;2023-08-12T04:13:11;20.90;99.90
24446;DHT22;13347;50.984;5.822;2023-08-12T04:15:39;21.00;99.90
24446;DHT22;13347;50.984;5.822;2023-08-12T04:18:06;21.00;99.90
24446;DHT22;13347;50.984;5.822;2023-08-12T04:20:33;21.00;99.90
24446;DHT22;13347;50.984;5.822;2023-08-12T04:23:00;20.90;99.90
24446;DHT22;13347;50.984;5.822;2023-08-12T04:25:28;20.90;99.90
24446;DHT22;13347;50.984;5.822;2023-08-12T04:27:55;20.90;99.90
24446;DHT22;13347;50.984;5.822;2023-08-12T04:30:23;20.90;99.90
24446;DHT22;13347;50.984;5.822;2023-08-12T04:32:51;20.80;99.90
24446;DHT22;13347;50.984;5.822;2023-08-12T04:35:18;20.90;99.90
24446;DHT22;13347;50.984;5.822;2023-08-12T04:37:45;20.90;99.90
24446;DHT22;13347;50.984;5.822;2023-08-12T04:40:12;20.90;99.90
24446;DHT22;13347;50.984;5.822;2023-08-12T04:42:39;20.80;99.90
24446;DHT22;13347;50.984;5.822;2023-08-12T04:45:06;20.80;99.90
24446;DHT22;13347;50.984;5.822;2023-08-12T04:47:33;20.80;99.90
24446;DHT22;13347;50.984;5.822;2023-08-12T04:50:02;20.80;99.90
24446;DHT22;13347;50.984;5.822;2023-08-12T04:52:29;20.80;99.90
24446;DHT22;13347;50.984;5.822;2023-08-12T04:54:56;20.70;99.90
24446;DHT22;13347;50.984;5.822;2023-08-12T04:57:23;20.70;99.90
24446;DHT22;13347;50.984;5.822;2023-08-12T04:59:50;20.60;99.90
24446;DHT22;13347;50.984;5.822;2023-08-12T05:02:17;20.60;99.90
24446;DHT22;13347;50.984;5.822;2023-08-12T05:04:47;20.50;99.90
24446;DHT22;13347;50.984;5.822;2023-08-12T05:07:15;20.40;99.90
24446;DHT22;13347;50.984;5.822;2023-08-12T05:09:42;20.40;99.90
24446;DHT22;13347;50.984;5.822;2023-08-12T05:12:10;20.30;99.90
24446;DHT22;13347;50.984;5.822;2023-08-12T05:14:37;20.20;99.90
24446;DHT22;13347;50.984;5.822;2023-08-12T05:17:05;20.20;99.90
24446;DHT22;13347;50.984;5.822;2023-08-12T05:19:32;20.10;99.90
24446;DHT22;13347;50.984;5.822;2023-08-12T05:21:59;20.10;99.90
24446;DHT22;13347;50.984;5.822;2023-08-12T05:24:27;20.00;99.90
24446;DHT22;13347;50.984;5.822;2023-08-12T05:26:54;19.90;99.90
24446;DHT22;13347;50.984;5.822;2023-08-12T05:29:21;19.90;99.90
24446;DHT22;13347;50.984;5.822;2023-08-12T05:31:48;19.90;99.90
24446;DHT22;13347;50.984;5.822;2023-08-12T05:34:15;19.80;99.90
24446;DHT22;13347;50.984;5.822;2023-08-12T05:36:42;19.80;99.90
24446;DHT22;13347;50.984;5.822;2023-08-12T05:39:09;19.80;99.90
24446;DHT22;13347;50.984;5.822;2023-08-12T05:41:38;19.80;99.90
24446;DHT22;13347;50.984;5.822;2023-08-12T05:44:05;19.80;99.90
24446;DHT22;13347;50.984;5.822;2023-08-12T05:46:32;19.80;99.90
24446;DHT22;13347;50.984;5.822;2023-08-12T05:48:59;19.80;99.90
24446;DHT22;13347;50.984;5.822;2023-08-12T05:51:26;19.80;99.90
24446;DHT22;13347;50.984;5.822;2023-08-12T05:53:53;19.80;99.90
24446;DHT22;13347;50.984;5.822;2023-08-12T05:56:20;19.80;99.90
24446;DHT22;13347;50.984;5.822;2023-08-12T05:58:49;19.80;99.90
24446;DHT22;13347;50.984;5.822;2023-08-12T06:01:16;19.70;99.90
24446;DHT22;13347;50.984;5.822;2023-08-12T06:03:42;19.70;99.90
24446;DHT22;13347;50.984;5.822;2023-08-12T06:06:09;19.70;99.90
24446;DHT22;13347;50.984;5.822;2023-08-12T06:08:36;19.80;99.90
24446;DHT22;13347;50.984;5.822;2023-08-12T06:11:03;19.80;99.90
24446;DHT22;13347;50.984;5.822;2023-08-12T06:13:30;19.70;99.90
24446;DHT22;13347;50.984;5.822;2023-08-12T06:15:59;19.80;99.90
24446;DHT22;13347;50.984;5.822;2023-08-12T06:18:26;19.80;99.90
24446;DHT22;13347;50.984;5.822;2023-08-12T06:20:54;19.80;99.90
24446;DHT22;13347;50.984;5.822;2023-08-12T06:23:21;19.90;99.90
24446;DHT22;13347;50.984;5.822;2023-08-12T06:25:48;19.90;99.90
24446;DHT22;13347;50.984;5.822;2023-08-12T06:28:15;20.00;99.90
24446;DHT22;13347;50.984;5.822;2023-08-12T06:30:44;20.00;99.90
24446;DHT22;13347;50.984;5.822;2023-08-12T06:33:12;20.10;99.90
24446;DHT22;13347;50.984;5.822;2023-08-12T06:35:39;20.10;99.90
24446;DHT22;13347;50.984;5.822;2023-08-12T06:38:06;20.10;99.90
24446;DHT22;13347;50.984;5.822;2023-08-12T06:40:35;20.00;99.90
24446;DHT22;13347;50.984;5.822;2023-08-12T06:43:02;20.00;99.90
24446;DHT22;13347;50.984;5.822;2023-08-12T06:45:29;20.10;99.90
24446;DHT22;13347;50.984;5.822;2023-08-12T06:47:56;20.10;99.90
24446;DHT22;13347;50.984;5.822;2023-08-12T06:50:24;20.10;99.90
24446;DHT22;13347;50.984;5.822;2023-08-12T06:52:52;20.20;99.90
24446;DHT22;13347;50.984;5.822;2023-08-12T06:55:18;20.10;99.90
24446;DHT22;13347;50.984;5.822;2023-08-12T06:57:46;20.10;99.90
24446;DHT22;13347;50.984;5.822;2023-08-12T07:00:13;20.10;99.90
24446;DHT22;13347;50.984;5.822;2023-08-12T07:02:40;20.20;99.90
24446;DHT22;13347;50.984;5.822;2023-08-12T07:05:08;20.20;99.90
24446;DHT22;13347;50.984;5.822;2023-08-12T07:07:36;20.20;99.90
24446;DHT22;13347;50.984;5.822;2023-08-12T07:10:03;20.20;99.90
24446;DHT22;13347;50.984;5.822;2023-08-12T07:12:31;20.30;99.90
24446;DHT22;13347;50.984;5.822;2023-08-12T07:14:59;20.30;99.90
24446;DHT22;13347;50.984;5.822;2023-08-12T07:17:26;20.30;99.90
24446;DHT22;13347;50.984;5.822;2023-08-12T07:19:53;20.30;99.90
24446;DHT22;13347;50.984;5.822;2023-08-12T07:22:20;20.30;99.90
24446;DHT22;13347;50.984;5.822;2023-08-12T07:24:48;20.20;99.90
24446;DHT22;13347;50.984;5.822;2023-08-12T07:27:18;20.20;99.90
24446;DHT22;13347;50.984;5.822;2023-08-12T07:29:45;20.40;99.90
24446;DHT22;13347;50.984;5.822;2023-08-12T07:32:12;20.40;99.90
24446;DHT22;13347;50.984;5.822;2023-08-12T07:34:39;20.50;99.90
24446;DHT22;13347;50.984;5.822;2023-08-12T07:37:06;20.60;99.90
24446;DHT22;13347;50.984;5.822;2023-08-12T07:39:33;20.60;99.90
24446;DHT22;13347;50.984;5.822;2023-08-12T07:42:01;20.60;99.90
24446;DHT22;13347;50.984;5.822;2023-08-12T07:44:28;20.50;99.90
24446;DHT22;13347;50.984;5.822;2023-08-12T07:46:55;20.50;99.90
24446;DHT22;13347;50.984;5.822;2023-08-12T07:49:22;20.40;99.90
24446;DHT22;13347;50.984;5.822;2023-08-12T07:51:49;20.30;99.90
24446;DHT22;13347;50.984;5.822;2023-08-12T07:54:16;20.30;99.90
24446;DHT22;13347;50.984;5.822;2023-08-12T07:56:43;20.30;99.90
24446;DHT22;13347;50.984;5.822;2023-08-12T07:59:12;20.30;99.90
24446;DHT22;13347;50.984;5.822;2023-08-12T08:01:39;20.30;99.90
24446;DHT22;13347;50.984;5.822;2023-08-12T08:04:06;20.30;99.90
24446;DHT22;13347;50.984;5.822;2023-08-12T08:06:33;20.30;99.90
24446;DHT22;13347;50.984;5.822;2023-08-12T08:09:00;20.30;99.90
24446;DHT22;13347;50.984;5.822;2023-08-12T08:11:29;20.30;99.90
24446;DHT22;13347;50.984;5.822;2023-08-12T08:13:57;20.30;99.90
24446;DHT22;13347;50.984;5.822;2023-08-12T08:16:25;20.40;99.90
24446;DHT22;13347;50.984;5.822;2023-08-12T08:18:52;20.40;99.90
24446;DHT22;13347;50.984;5.822;2023-08-12T08:21:19;20.50;99.90
24446;DHT22;13347;50.984;5.822;2023-08-12T08:23:46;20.40;99.90
24446;DHT22;13347;50.984;5.822;2023-08-12T08:26:13;20.50;99.90
24446;DHT22;13347;50.984;5.822;2023-08-12T08:28:41;20.70;99.90
24446;DHT22;13347;50.984;5.822;2023-08-12T08:31:08;20.70;99.90
24446;DHT22;13347;50.984;5.822;2023-08-12T08:33:36;20.70;99.90
24446;DHT22;13347;50.984;5.822;2023-08-12T08:36:04;20.70;99.90
24446;DHT22;13347;50.984;5.822;2023-08-12T08:38:31;20.70;99.90
24446;DHT22;13347;50.984;5.822;2023-08-12T08:40:58;20.70;99.90
24446;DHT22;13347;50.984;5.822;2023-08-12T08:43:25;20.60;99.90
24446;DHT22;13347;50.984;5.822;2023-08-12T08:45:53;20.70;99.90
24446;DHT22;13347;50.984;5.822;2023-08-12T08:48:20;20.60;99.90
24446;DHT22;13347;50.984;5.822;2023-08-12T08:50:49;20.80;99.90
24446;DHT22;13347;50.984;5.822;2023-08-12T08:53:17;20.70;99.90
24446;DHT22;13347;50.984;5.822;2023-08-12T08:55:44;20.80;99.90
24446;DHT22;13347;50.984;5.822;2023-08-12T08:58:11;20.90;99.90
24446;DHT22;13347;50.984;5.822;2023-08-12T09:00:38;21.00;99.90
24446;DHT22;13347;50.984;5.822;2023-08-12T09:03:05;21.00;99.90
24446;DHT22;13347;50.984;5.822;2023-08-12T09:05:33;21.10;99.90
24446;DHT22;13347;50.984;5.822;2023-08-12T09:08:02;21.10;99.90
24446;DHT22;13347;50.984;5.822;2023-08-12T09:10:32;21.10;99.90
24446;DHT22;13347;50.984;5.822;2023-08-12T09:12:59;21.00;99.90
24446;DHT22;13347;50.984;5.822;2023-08-12T09:15:27;21.00;99.90
24446;DHT22;13347;50.984;5.822;2023-08-12T09:17:54;21.00;99.90
24446;DHT22;13347;50.984;5.822;2023-08-12T09:20:21;21.00;99.90
24446;DHT22;13347;50.984;5.822;2023-08-12T09:22:56;21.00;99.90
24446;DHT22;13347;50.984;5.822;2023-08-12T09:25:25;21.00;99.90
24446;DHT22;13347;50.984;5.822;2023-08-12T09:27:53;21.10;99.90
24446;DHT22;13347;50.984;5.822;2023-08-12T09:30:20;21.20;99.90
24446;DHT22;13347;50.984;5.822;2023-08-12T09:32:54;21.20;99.90
24446;DHT22;13347;50.984;5.822;2023-08-12T09:35:24;21.30;99.90
24446;DHT22;13347;50.984;5.822;2023-08-12T09:37:57;21.40;99.90
24446;DHT22;13347;50.984;5.822;2023-08-12T09:40:26;21.20;99.90
24446;DHT22;13347;50.984;5.822;2023-08-12T09:42:53;21.10;99.90
24446;DHT22;13347;50.984;5.822;2023-08-12T09:45:22;21.00;99.90
24446;DHT22;13347;50.984;5.822;2023-08-12T09:47:50;21.00;99.90
24446;DHT22;13347;50.984;5.822;2023-08-12T09:50:16;21.10;99.90
24446;DHT22;13347;50.984;5.822;2023-08-12T09:52:43;21.30;99.90
24446;DHT22;13347;50.984;5.822;2023-08-12T09:55:11;21.40;99.90
24446;DHT22;13347;50.984;5.822;2023-08-12T09:57:43;21.50;99.90
24446;DHT22;13347;50.984;5.822;2023-08-12T10:00:11;21.70;99.90
24446;DHT22;13347;50.984;5.822;2023-08-12T10:02:42;21.60;99.90
24446;DHT22;13347;50.984;5.822;2023-08-12T10:05:09;21.60;99.90
24446;DHT22;13347;50.984;5.822;2023-08-12T10:07:38;21.70;99.90
24446;DHT22;13347;50.984;5.822;2023-08-12T10:10:06;21.90;99.90
24446;DHT22;13347;50.984;5.822;2023-08-12T10:12:34;21.90;99.90
24446;DHT22;13347;50.984;5.822;2023-08-12T10:15:05;21.90;99.90
24446;DHT22;13347;50.984;5.822;2023-08-12T10:17:32;21.90;99.90
24446;DHT22;13347;50.984;5.822;2023-08-12T10:20:00;22.10;99.90
24446;DHT22;13347;50.984;5.822;2023-08-12T10:22:29;21.90;99.90
24446;DHT22;13347;50.984;5.822;2023-08-12T10:24:56;22.10;99.90
24446;DHT22;13347;50.984;5.822;2023-08-12T10:27:25;22.00;99.90
24446;DHT22;13347;50.984;5.822;2023-08-12T10:29:52;22.10;99.90
24446;DHT22;13347;50.984;5.822;2023-08-12T10:32:20;22.20;99.90
24446;DHT22;13347;50.984;5.822;2023-08-12T10:34:53;22.20;99.90
24446;DHT22;13347;50.984;5.822;2023-08-12T10:37:21;22.20;99.90
24446;DHT22;13347;50.984;5.822;2023-08-12T10:39:49;21.80;99.90
24446;DHT22;13347;50.984;5.822;2023-08-12T10:42:31;21.70;99.90
24446;DHT22;13347;50.984;5.822;2023-08-12T10:45:06;21.40;99.90
24446;DHT22;13347;50.984;5.822;2023-08-12T10:47:34;21.20;99.90
24446;DHT22;13347;50.984;5.822;2023-08-12T10:50:04;21.00;99.90
24446;DHT22;13347;50.984;5.822;2023-08-12T10:52:32;20.90;99.90
24446;DHT22;13347;50.984;5.822;2023-08-12T10:55:16;20.90;99.90
24446;DHT22;13347;50.984;5.822;2023-08-12T10:57:42;20.80;99.90
24446;DHT22;13347;50.984;5.822;2023-08-12T11:00:10;21.00;99.90
24446;DHT22;13347;50.984;5.822;2023-08-12T11:02:40;21.20;99.90
24446;DHT22;13347;50.984;5.822;2023-08-12T11:05:11;21.30;99.90
24446;DHT22;13347;50.984;5.822;2023-08-12T11:07:39;21.50;99.90
24446;DHT22;13347;50.984;5.822;2023-08-12T11:10:09;21.70;99.90
24446;DHT22;13347;50.984;5.822;2023-08-12T11:12:36;21.80;99.90
24446;DHT22;13347;50.984;5.822;2023-08-12T11:15:05;21.50;99.90
24446;DHT22;13347;50.984;5.822;2023-08-12T11:17:33;21.30;99.90
24446;DHT22;13347;50.984;5.822;2023-08-12T11:20:02;21.10;99.90
24446;DHT22;13347;50.984;5.822;2023-08-12T11:22:31;21.10;99.90
24446;DHT22;13347;50.984;5.822;2023-08-12T11:24:58;21.30;99.90
24446;DHT22;13347;50.984;5.822;2023-08-12T11:27:25;21.40;99.90
24446;DHT22;13347;50.984;5.822;2023-08-12T11:29:52;21.30;99.90
24446;DHT22;13347;50.984;5.822;2023-08-12T11:32:19;21.30;99.90
24446;DHT22;13347;50.984;5.822;2023-08-12T11:34:46;21.50;99.90
24446;DHT22;13347;50.984;5.822;2023-08-12T11:37:14;21.40;99.90
24446;DHT22;13347;50.984;5.822;2023-08-12T11:39:41;21.20;99.90
24446;DHT22;13347;50.984;5.822;2023-08-12T11:42:08;21.10;99.90
24446;DHT22;13347;50.984;5.822;2023-08-12T11:44:35;21.20;99.90
24446;DHT22;13347;50.984;5.822;2023-08-12T11:47:02;21.40;99.90
24446;DHT22;13347;50.984;5.822;2023-08-12T11:49:29;21.50;99.90
24446;DHT22;13347;50.984;5.822;2023-08-12T11:51:56;21.30;99.90
24446;DHT22;13347;50.984;5.822;2023-08-12T11:54:24;21.30;99.90
24446;DHT22;13347;50.984;5.822;2023-08-12T11:56:51;21.30;99.90
24446;DHT22;13347;50.984;5.822;2023-08-12T11:59:20;21.30;99.90
24446;DHT22;13347;50.984;5.822;2023-08-12T12:01:49;21.60;99.90
24446;DHT22;13347;50.984;5.822;2023-08-12T12:04:16;21.50;99.90
24446;DHT22;13347;50.984;5.822;2023-08-12T12:06:46;21.20;99.90
24446;DHT22;13347;50.984;5.822;2023-08-12T12:09:13;21.10;99.90
24446;DHT22;13347;50.984;5.822;2023-08-12T12:11:42;21.20;99.90
24446;DHT22;13347;50.984;5.822;2023-08-12T12:14:09;21.50;99.90
24446;DHT22;13347;50.984;5.822;2023-08-12T12:16:37;21.80;99.90
24446;DHT22;13347;50.984;5.822;2023-08-12T12:19:05;22.10;99.90
24446;DHT22;13347;50.984;5.822;2023-08-12T12:21:38;22.80;99.90
24446;DHT22;13347;50.984;5.822;2023-08-12T12:24:05;22.90;99.90
24446;DHT22;13347;50.984;5.822;2023-08-12T12:26:32;23.20;99.90
24446;DHT22;13347;50.984;5.822;2023-08-12T12:29:01;23.50;99.90
24446;DHT22;13347;50.984;5.822;2023-08-12T12:31:28;23.90;99.90
24446;DHT22;13347;50.984;5.822;2023-08-12T12:33:56;24.40;99.90
24446;DHT22;13347;50.984;5.822;2023-08-12T12:36:23;24.90;99.90
24446;DHT22;13347;50.984;5.822;2023-08-12T12:38:50;25.10;99.90
24446;DHT22;13347;50.984;5.822;2023-08-12T12:41:17;25.40;99.90
24446;DHT22;13347;50.984;5.822;2023-08-12T12:43:44;25.30;1.00
24446;DHT22;13347;50.984;5.822;2023-08-12T12:46:12;24.70;1.00
24446;DHT22;13347;50.984;5.822;2023-08-12T12:48:39;24.30;99.90
24446;DHT22;13347;50.984;5.822;2023-08-12T12:51:06;24.30;1.00
24446;DHT22;13347;50.984;5.822;2023-08-12T12:53:33;24.10;1.00
24446;DHT22;13347;50.984;5.822;2023-08-12T12:56:00;24.30;1.00
24446;DHT22;13347;50.984;5.822;2023-08-12T12:58:30;24.40;1.00
24446;DHT22;13347;50.984;5.822;2023-08-12T13:00:57;24.40;1.00
24446;DHT22;13347;50.984;5.822;2023-08-12T13:03:25;24.00;99.90
24446;DHT22;13347;50.984;5.822;2023-08-12T13:05:52;23.80;1.00
24446;DHT22;13347;50.984;5.822;2023-08-12T13:08:19;23.90;99.90
24446;DHT22;13347;50.984;5.822;2023-08-12T13:10:46;24.60;15.20
24446;DHT22;13347;50.984;5.822;2023-08-12T13:13:14;25.40;1.00
24446;DHT22;13347;50.984;5.822;2023-08-12T13:15:41;26.00;30.00
24446;DHT22;13347;50.984;5.822;2023-08-12T13:18:08;26.20;1.00
24446;DHT22;13347;50.984;5.822;2023-08-12T13:20:37;25.80;1.00
24446;DHT22;13347;50.984;5.822;2023-08-12T13:23:04;25.60;1.00
24446;DHT22;13347;50.984;5.822;2023-08-12T13:25:31;25.70;1.00
24446;DHT22;13347;50.984;5.822;2023-08-12T13:27:59;26.10;99.90
24446;DHT22;13347;50.984;5.822;2023-08-12T13:30:26;25.80;39.90
24446;DHT22;13347;50.984;5.822;2023-08-12T13:32:53;25.90;1.00
24446;DHT22;13347;50.984;5.822;2023-08-12T13:35:20;25.70;1.00
24446;DHT22;13347;50.984;5.822;2023-08-12T13:37:49;25.80;1.00
24446;DHT22;13347;50.984;5.822;2023-08-12T13:40:17;25.90;1.00
24446;DHT22;13347;50.984;5.822;2023-08-12T13:42:44;25.90;99.90
24446;DHT22;13347;50.984;5.822;2023-08-12T13:45:12;26.20;99.90
24446;DHT22;13347;50.984;5.822;2023-08-12T13:47:39;26.50;99.90
24446;DHT22;13347;50.984;5.822;2023-08-12T13:50:07;26.30;1.00
24446;DHT22;13347;50.984;5.822;2023-08-12T13:52:34;26.10;1.00
24446;DHT22;13347;50.984;5.822;2023-08-12T13:55:02;25.90;1.00
24446;DHT22;13347;50.984;5.822;2023-08-12T13:57:30;25.80;1.00
24446;DHT22;13347;50.984;5.822;2023-08-12T13:59:57;26.20;1.00
24446;DHT22;13347;50.984;5.822;2023-08-12T14:02:24;26.70;1.00
24446;DHT22;13347;50.984;5.822;2023-08-12T14:04:51;27.10;1.00
24446;DHT22;13347;50.984;5.822;2023-08-12T14:07:18;26.80;1.00
24446;DHT22;13347;50.984;5.822;2023-08-12T14:09:46;26.60;99.90
24446;DHT22;13347;50.984;5.822;2023-08-12T14:12:15;26.50;1.00
24446;DHT22;13347;50.984;5.822;2023-08-12T14:14:42;26.90;99.90
24446;DHT22;13347;50.984;5.822;2023-08-12T14:17:09;26.70;99.90
24446;DHT22;13347;50.984;5.822;2023-08-12T14:19:39;26.70;99.90
24446;DHT22;13347;50.984;5.822;2023-08-12T14:22:07;26.90;1.00
24446;DHT22;13347;50.984;5.822;2023-08-12T14:24:34;26.60;1.00
24446;DHT22;13347;50.984;5.822;2023-08-12T14:27:01;26.30;1.00
24446;DHT22;13347;50.984;5.822;2023-08-12T14:29:29;26.40;1.00
24446;DHT22;13347;50.984;5.822;2023-08-12T14:31:57;26.70;1.00
24446;DHT22;13347;50.984;5.822;2023-08-12T14:34:24;26.90;1.00
24446;DHT22;13347;50.984;5.822;2023-08-12T14:36:51;26.50;1.00
24446;DHT22;13347;50.984;5.822;2023-08-12T14:39:18;26.80;1.00
24446;DHT22;13347;50.984;5.822;2023-08-12T14:41:45;26.70;1.00
24446;DHT22;13347;50.984;5.822;2023-08-12T14:44:13;26.70;1.00
24446;DHT22;13347;50.984;5.822;2023-08-12T14:46:42;26.90;1.00
24446;DHT22;13347;50.984;5.822;2023-08-12T14:49:09;27.40;1.00
24446;DHT22;13347;50.984;5.822;2023-08-12T14:51:36;27.30;1.00
24446;DHT22;13347;50.984;5.822;2023-08-12T14:54:03;27.40;1.00
24446;DHT22;13347;50.984;5.822;2023-08-12T14:56:30;27.60;1.00
24446;DHT22;13347;50.984;5.822;2023-08-12T14:58:57;27.70;1.00
24446;DHT22;13347;50.984;5.822;2023-08-12T15:01:24;27.90;1.00
24446;DHT22;13347;50.984;5.822;2023-08-12T15:03:55;27.30;1.00
24446;DHT22;13347;50.984;5.822;2023-08-12T15:06:22;27.20;1.00
24446;DHT22;13347;50.984;5.822;2023-08-12T15:08:49;27.10;1.00
24446;DHT22;13347;50.984;5.822;2023-08-12T15:11:16;27.60;1.00
24446;DHT22;13347;50.984;5.822;2023-08-12T15:13:43;27.30;1.00
24446;DHT22;13347;50.984;5.822;2023-08-12T15:16:10;27.20;1.00
24446;DHT22;13347;50.984;5.822;2023-08-12T15:18:37;27.10;1.00
24446;DHT22;13347;50.984;5.822;2023-08-12T15:21:06;27.20;1.00
24446;DHT22;13347;50.984;5.822;2023-08-12T15:23:33;27.30;1.00
24446;DHT22;13347;50.984;5.822;2023-08-12T15:26:00;27.40;1.00
24446;DHT22;13347;50.984;5.822;2023-08-12T15:28:28;27.40;1.00
24446;DHT22;13347;50.984;5.822;2023-08-12T15:30:55;28.10;1.00
24446;DHT22;13347;50.984;5.822;2023-08-12T15:33:22;27.80;1.00
24446;DHT22;13347;50.984;5.822;2023-08-12T15:35:49;27.30;1.00